createdAt,value
2023-04-28T00:00:19.823Z,3.58
2023-04-28T00:01:19.805Z,3.72
2023-04-28T00:02:19.897Z,3.60
2023-04-28T00:03:19.917Z,3.66
2023-04-28T00:04:20.212Z,3.68
2023-04-28T00:05:19.783Z,3.62
2023-04-28T00:06:19.756Z,3.76
2023-04-28T00:07:19.716Z,3.60
2023-04-28T00:08:19.725Z,3.60
2023-04-28T00:09:19.711Z,3.69
2023-04-28T00:10:19.692Z,3.72
2023-04-28T00:11:19.672Z,3.65
2023-04-28T00:12:19.686Z,3.65
2023-04-28T00:13:19.672Z,3.57
2023-04-28T00:14:19.637Z,3.65
2023-04-28T00:15:19.627Z,3.60
2023-04-28T00:16:19.666Z,3.69
2023-04-28T00:17:19.663Z,3.57
2023-04-28T00:18:19.608Z,3.65
2023-04-28T00:19:19.646Z,3.65
2023-04-28T00:20:19.568Z,3.72
2023-04-28T00:21:19.560Z,3.68
2023-04-28T00:22:19.569Z,3.78
2023-04-28T00:23:19.614Z,3.80
2023-04-28T00:24:19.535Z,3.87
2023-04-28T00:25:19.518Z,3.88
2023-04-28T00:26:19.523Z,3.87
2023-04-28T00:27:19.507Z,3.87
2023-04-28T00:28:32.946Z,3.97
2023-04-28T00:29:20.491Z,3.90
2023-04-28T00:30:19.476Z,3.94
2023-04-28T00:31:19.478Z,3.90
2023-04-28T00:32:19.434Z,3.91
2023-04-28T00:33:19.481Z,3.93
2023-04-28T00:34:19.437Z,3.87
2023-04-28T00:35:19.414Z,3.96
2023-04-28T00:36:19.395Z,3.97
2023-04-28T00:37:19.381Z,3.98
2023-04-28T00:38:19.387Z,3.97
2023-04-28T00:39:19.354Z,3.87
2023-04-28T00:40:19.383Z,3.98
2023-04-28T00:41:19.352Z,3.97
2023-04-28T00:42:19.327Z,3.97
2023-04-28T00:43:19.306Z,3.98
2023-04-28T00:44:19.298Z,4.00
2023-04-28T00:45:19.309Z,3.94
2023-04-28T00:46:19.308Z,3.87
2023-04-28T00:47:19.275Z,3.98
2023-04-28T00:48:19.268Z,3.91
2023-04-28T00:49:19.242Z,3.96
2023-04-28T00:50:19.230Z,3.91
2023-04-28T00:51:19.244Z,4.00
2023-04-28T00:52:19.214Z,4.00
2023-04-28T00:53:19.273Z,3.96
2023-04-28T00:54:19.350Z,3.94
2023-04-28T00:55:19.194Z,3.96
2023-04-28T00:56:19.164Z,3.94
2023-04-28T00:57:19.153Z,3.98
2023-04-28T00:58:19.140Z,3.97
2023-04-28T00:59:19.136Z,4.00
2023-04-28T01:00:19.239Z,3.96
2023-04-28T01:01:19.196Z,4.02
2023-04-28T01:02:19.163Z,4.04
2023-04-28T01:03:19.262Z,4.08
2023-04-28T01:04:19.535Z,4.08
2023-04-28T01:05:19.097Z,4.11
2023-04-28T01:06:19.082Z,4.06
2023-04-28T01:07:19.064Z,4.15
2023-04-28T01:08:19.024Z,4.16
2023-04-28T01:09:19.017Z,4.22
2023-04-28T01:10:19.006Z,4.34
2023-04-28T01:11:19.000Z,4.36
2023-04-28T01:12:19.003Z,4.42
2023-04-28T01:13:18.992Z,4.44
2023-04-28T01:14:18.958Z,4.51
2023-04-28T01:15:19.002Z,4.50
2023-04-28T01:16:18.948Z,4.60
2023-04-28T01:17:18.935Z,4.63
2023-04-28T01:18:18.919Z,4.78
2023-04-28T01:19:18.930Z,4.85
2023-04-28T01:20:18.901Z,4.80
2023-04-28T01:21:18.880Z,4.88
2023-04-28T01:22:18.883Z,4.97
2023-04-28T01:23:18.895Z,5.02
2023-04-28T01:24:19.081Z,5.03
2023-04-28T01:25:18.866Z,5.13
2023-04-28T01:26:18.839Z,5.28
2023-04-28T01:27:18.816Z,5.33
2023-04-28T01:28:18.799Z,5.31
2023-04-28T01:29:18.799Z,5.25
2023-04-28T01:30:18.786Z,5.22
2023-04-28T01:31:18.841Z,5.28
2023-04-28T01:32:18.773Z,5.28
2023-04-28T01:33:18.748Z,5.48
2023-04-28T01:34:18.841Z,5.42
2023-04-28T01:35:18.758Z,5.58
2023-04-28T01:36:18.738Z,5.64
2023-04-28T01:37:18.722Z,5.65
2023-04-28T01:38:18.712Z,5.63
2023-04-28T01:39:18.701Z,5.65
2023-04-28T01:40:18.667Z,5.72
2023-04-28T01:41:18.674Z,5.76
2023-04-28T01:42:18.650Z,5.71
2023-04-28T01:43:18.654Z,5.79
2023-04-28T01:44:18.985Z,5.78
2023-04-28T01:45:18.618Z,5.79
2023-04-28T01:46:18.813Z,5.78
2023-04-28T01:47:18.593Z,5.79
2023-04-28T01:48:18.586Z,5.85
2023-04-28T01:49:18.586Z,5.89
2023-04-28T01:50:19.331Z,5.90
2023-04-28T01:51:18.561Z,5.89
2023-04-28T01:52:18.555Z,5.89
2023-04-28T01:53:18.543Z,5.90
2023-04-28T01:54:18.870Z,5.91
2023-04-28T01:55:18.518Z,5.91
2023-04-28T01:56:18.486Z,5.86
2023-04-28T01:57:19.214Z,5.90
2023-04-28T01:58:18.467Z,5.86
2023-04-28T01:59:18.476Z,5.93
2023-04-28T02:00:18.440Z,5.97
2023-04-28T02:01:18.465Z,5.97
2023-04-28T02:02:18.421Z,5.82
2023-04-28T02:03:18.436Z,5.86
2023-04-28T02:04:18.735Z,5.90
2023-04-28T02:05:18.425Z,5.93
2023-04-28T02:06:18.379Z,5.91
2023-04-28T02:07:18.358Z,5.93
2023-04-28T02:08:18.370Z,5.93
2023-04-28T02:09:18.363Z,5.86
2023-04-28T02:10:18.330Z,5.86
2023-04-28T02:11:18.350Z,5.82
2023-04-28T02:12:18.309Z,5.83
2023-04-28T02:13:18.291Z,5.85
2023-04-28T02:14:18.470Z,5.82
2023-04-28T02:15:18.272Z,5.82
2023-04-28T02:16:18.295Z,5.79
2023-04-28T02:17:18.253Z,5.65
2023-04-28T02:18:18.228Z,5.60
2023-04-28T02:19:18.276Z,5.58
2023-04-28T02:20:18.230Z,5.51
2023-04-28T02:21:18.209Z,5.56
2023-04-28T02:22:18.191Z,5.53
2023-04-28T02:23:18.169Z,5.48
2023-04-28T02:24:18.543Z,5.36
2023-04-28T02:25:18.174Z,5.27
2023-04-28T02:26:18.143Z,5.31
2023-04-28T02:27:18.145Z,5.24
2023-04-28T02:28:18.123Z,5.20
2023-04-28T02:29:18.121Z,5.15
2023-04-28T02:30:18.150Z,5.02
2023-04-28T02:31:18.143Z,5.12
2023-04-28T02:32:18.073Z,5.00
2023-04-28T02:33:18.057Z,5.06
2023-04-28T02:34:18.211Z,4.97
2023-04-28T02:35:18.071Z,5.02
2023-04-28T02:36:18.022Z,5.04
2023-04-28T02:37:18.030Z,5.03
2023-04-28T02:38:17.995Z,4.97
2023-04-28T02:39:17.993Z,4.96
2023-04-28T02:40:17.977Z,5.03
2023-04-28T02:41:17.956Z,5.06
2023-04-28T02:42:17.972Z,4.88
2023-04-28T02:43:17.971Z,5.02
2023-04-28T02:44:18.099Z,5.10
2023-04-28T02:45:17.926Z,5.07
2023-04-28T02:46:17.989Z,5.02
2023-04-28T02:47:17.901Z,5.06
2023-04-28T02:48:17.907Z,5.03
2023-04-28T02:49:17.873Z,5.04
2023-04-28T02:50:24.948Z,5.04
2023-04-28T02:51:17.869Z,5.00
2023-04-28T02:52:24.896Z,5.06
2023-04-28T02:53:24.894Z,5.04
2023-04-28T02:54:25.406Z,5.00
2023-04-28T02:55:24.857Z,5.07
2023-04-28T02:56:24.973Z,5.03
2023-04-28T02:57:17.846Z,4.99
2023-04-28T02:58:17.893Z,4.99
2023-04-28T02:59:17.791Z,5.04
2023-04-28T03:00:17.817Z,4.96
2023-04-28T03:01:17.794Z,5.09
2023-04-28T03:02:17.840Z,5.04
2023-04-28T03:03:17.834Z,5.06
2023-04-28T03:04:17.935Z,5.00
2023-04-28T03:05:17.714Z,5.02
2023-04-28T03:06:17.685Z,5.07
2023-04-28T03:07:17.672Z,5.03
2023-04-28T03:08:17.669Z,4.94
2023-04-28T03:09:17.669Z,5.03
2023-04-28T03:10:17.713Z,5.02
2023-04-28T03:11:17.629Z,5.00
2023-04-28T03:12:17.662Z,5.06
2023-04-28T03:13:17.636Z,5.03
2023-04-28T03:14:17.759Z,5.09
2023-04-28T03:15:17.600Z,5.06
2023-04-28T03:16:17.579Z,4.99
2023-04-28T03:17:17.573Z,4.92
2023-04-28T03:18:17.572Z,5.04
2023-04-28T03:19:17.547Z,4.99
2023-04-28T03:20:17.528Z,5.06
2023-04-28T03:21:17.516Z,5.03
2023-04-28T03:22:17.505Z,4.99
2023-04-28T03:23:17.513Z,5.09
2023-04-28T03:24:17.780Z,5.12
2023-04-28T03:25:17.479Z,5.07
2023-04-28T03:26:17.462Z,5.09
2023-04-28T03:27:17.445Z,5.00
2023-04-28T03:28:17.461Z,5.00
2023-04-28T03:29:17.420Z,5.07
2023-04-28T03:30:26.417Z,5.07
2023-04-28T03:31:19.249Z,5.04
2023-04-28T03:32:17.484Z,5.09
2023-04-28T03:33:17.384Z,5.00
2023-04-28T03:34:17.541Z,5.06
2023-04-28T03:35:17.378Z,5.03
2023-04-28T03:36:17.360Z,5.06
2023-04-28T03:37:17.339Z,5.15
2023-04-28T03:38:17.324Z,5.09
2023-04-28T03:39:17.328Z,5.07
2023-04-28T03:40:17.300Z,5.10
2023-04-28T03:41:17.301Z,5.09
2023-04-28T03:42:17.295Z,5.06
2023-04-28T03:43:17.270Z,5.12
2023-04-28T03:44:17.530Z,5.15
2023-04-28T03:45:17.267Z,5.15
2023-04-28T03:46:17.400Z,5.22
2023-04-28T03:47:17.225Z,5.18
2023-04-28T03:48:17.249Z,5.13
2023-04-28T03:49:17.214Z,5.20
2023-04-28T03:50:17.199Z,5.13
2023-04-28T03:51:17.188Z,5.30
2023-04-28T03:52:17.191Z,5.28
2023-04-28T03:53:17.160Z,5.18
2023-04-28T03:54:17.378Z,5.33
2023-04-28T03:55:17.153Z,5.33
2023-04-28T03:56:17.128Z,5.30
2023-04-28T03:57:17.115Z,5.31
2023-04-28T03:58:17.106Z,5.39
2023-04-28T03:59:17.087Z,5.39
2023-04-28T04:00:17.082Z,5.42
2023-04-28T04:01:17.097Z,5.36
2023-04-28T04:02:17.142Z,5.48
2023-04-28T04:03:17.163Z,5.45
2023-04-28T04:04:17.946Z,5.54
2023-04-28T04:05:17.143Z,5.42
2023-04-28T04:06:17.036Z,5.53
2023-04-28T04:07:16.996Z,5.51
2023-04-28T04:08:16.991Z,5.54
2023-04-28T04:09:16.974Z,5.48
2023-04-28T04:10:16.966Z,5.48
2023-04-28T04:11:17.015Z,5.51
2023-04-28T04:12:16.950Z,5.51
2023-04-28T04:13:16.928Z,5.54
2023-04-28T04:14:17.176Z,5.49
2023-04-28T04:15:16.926Z,5.51
2023-04-28T04:16:16.913Z,5.56
2023-04-28T04:17:16.921Z,5.54
2023-04-28T04:18:16.922Z,5.54
2023-04-28T04:19:16.877Z,5.54
2023-04-28T04:20:16.895Z,5.58
2023-04-28T04:21:16.892Z,5.63
2023-04-28T04:22:16.945Z,5.54
2023-04-28T04:23:16.886Z,5.51
2023-04-28T04:24:17.015Z,5.64
2023-04-28T04:25:16.797Z,5.56
2023-04-28T04:26:16.878Z,5.61
2023-04-28T04:27:16.771Z,5.60
2023-04-28T04:28:16.755Z,5.63
2023-04-28T04:29:16.773Z,5.61
2023-04-28T04:30:17.023Z,5.61
2023-04-28T04:31:16.796Z,5.60
2023-04-28T04:32:16.718Z,5.74
2023-04-28T04:33:16.702Z,5.76
2023-04-28T04:34:16.940Z,5.76
2023-04-28T04:35:16.698Z,5.79
2023-04-28T04:36:16.676Z,5.96
2023-04-28T04:37:16.662Z,5.91
2023-04-28T04:38:16.650Z,5.90
2023-04-28T04:39:16.652Z,5.94
2023-04-28T04:40:16.644Z,6.04
2023-04-28T04:41:16.609Z,6.03
2023-04-28T04:42:24.996Z,6.03
2023-04-28T04:43:17.585Z,6.12
2023-04-28T04:44:16.829Z,6.18
2023-04-28T04:45:16.566Z,6.19
2023-04-28T04:46:16.601Z,6.36
2023-04-28T04:47:16.544Z,6.37
2023-04-28T04:48:16.537Z,6.54
2023-04-28T04:49:16.516Z,6.58
2023-04-28T04:50:16.527Z,6.61
2023-04-28T04:51:16.517Z,6.67
2023-04-28T04:52:16.510Z,6.66
2023-04-28T04:53:16.684Z,6.66
2023-04-28T04:54:16.707Z,6.76
2023-04-28T04:55:16.478Z,6.69
2023-04-28T04:56:16.440Z,6.70
2023-04-28T04:57:16.477Z,6.79
2023-04-28T04:58:16.413Z,6.84
2023-04-28T04:59:16.404Z,6.84
2023-04-28T05:00:16.400Z,6.85
2023-04-28T05:01:16.410Z,6.94
2023-04-28T05:02:16.457Z,6.95
2023-04-28T05:03:16.474Z,6.95
2023-04-28T05:04:16.686Z,7.09
2023-04-28T05:05:21.281Z,7.07
2023-04-28T05:06:17.374Z,7.12
2023-04-28T05:07:16.318Z,7.21
2023-04-28T05:08:19.139Z,7.25
2023-04-28T05:09:16.319Z,7.17
2023-04-28T05:10:16.324Z,7.27
2023-04-28T05:11:16.284Z,7.34
2023-04-28T05:12:16.292Z,7.37
2023-04-28T05:13:16.246Z,7.45
2023-04-28T05:14:16.500Z,7.39
2023-04-28T05:15:16.242Z,7.52
2023-04-28T05:16:16.278Z,7.52
2023-04-28T05:17:16.234Z,7.60
2023-04-28T05:18:16.198Z,7.60
2023-04-28T05:19:16.202Z,7.52
2023-04-28T05:20:16.197Z,7.67
2023-04-28T05:21:16.151Z,7.61
2023-04-28T05:22:16.168Z,7.74
2023-04-28T05:23:16.127Z,7.85
2023-04-28T05:24:16.355Z,7.87
2023-04-28T05:25:16.149Z,7.92
2023-04-28T05:26:16.107Z,7.98
2023-04-28T05:27:16.087Z,8.08
2023-04-28T05:28:16.074Z,8.15
2023-04-28T05:29:16.077Z,8.15
2023-04-28T05:30:16.086Z,8.20
2023-04-28T05:31:16.036Z,8.26
2023-04-28T05:32:16.051Z,8.34
2023-04-28T05:33:16.193Z,8.45
2023-04-28T05:34:16.279Z,8.47
2023-04-28T05:35:16.009Z,8.44
2023-04-28T05:36:15.993Z,8.52
2023-04-28T05:37:15.971Z,8.55
2023-04-28T05:38:16.009Z,8.58
2023-04-28T05:39:15.953Z,8.61
2023-04-28T05:40:15.949Z,8.65
2023-04-28T05:41:15.926Z,8.66
2023-04-28T05:42:15.929Z,8.65
2023-04-28T05:43:15.901Z,8.73
2023-04-28T05:44:16.079Z,8.81
2023-04-28T05:45:15.871Z,8.81
2023-04-28T05:46:29.112Z,8.80
2023-04-28T05:47:16.850Z,8.81
2023-04-28T05:48:15.849Z,8.80
2023-04-28T05:49:15.844Z,8.86
2023-04-28T05:50:15.815Z,8.91
2023-04-28T05:51:15.803Z,8.92
2023-04-28T05:52:15.793Z,8.92
2023-04-28T05:53:15.784Z,9.04
2023-04-28T05:54:16.183Z,9.02
2023-04-28T05:55:15.763Z,9.01
2023-04-28T05:56:15.758Z,9.01
2023-04-28T05:57:15.735Z,9.02
2023-04-28T05:58:23.279Z,9.01
2023-04-28T05:59:15.995Z,8.99
2023-04-28T06:00:23.257Z,9.08
2023-04-28T06:01:15.729Z,8.99
2023-04-28T06:02:15.731Z,9.05
2023-04-28T06:03:15.819Z,9.08
2023-04-28T06:04:16.061Z,9.04
2023-04-28T06:05:15.755Z,9.05
2023-04-28T06:06:15.706Z,9.14
2023-04-28T06:07:15.644Z,9.02
2023-04-28T06:08:15.635Z,9.02
2023-04-28T06:09:15.763Z,9.17
2023-04-28T06:10:15.615Z,9.05
2023-04-28T06:11:15.581Z,9.17
2023-04-28T06:12:15.568Z,9.17
2023-04-28T06:13:15.549Z,9.17
2023-04-28T06:14:15.835Z,9.21
2023-04-28T06:15:15.559Z,9.20
2023-04-28T06:16:15.569Z,9.23
2023-04-28T06:17:15.506Z,9.23
2023-04-28T06:18:15.494Z,9.36
2023-04-28T06:19:15.485Z,9.35
2023-04-28T06:20:16.157Z,9.40
2023-04-28T06:21:15.483Z,9.48
2023-04-28T06:22:15.465Z,9.51
2023-04-28T06:23:15.434Z,9.47
2023-04-28T06:24:15.599Z,9.57
2023-04-28T06:25:15.428Z,9.60
2023-04-28T06:26:16.859Z,9.58
2023-04-28T06:27:15.412Z,9.66
2023-04-28T06:28:15.392Z,9.64
2023-04-28T06:29:15.387Z,9.60
2023-04-28T06:30:15.391Z,9.69
2023-04-28T06:31:15.369Z,9.72
2023-04-28T06:32:15.339Z,9.79
2023-04-28T06:33:15.328Z,9.79
2023-04-28T06:34:15.471Z,9.93
2023-04-28T06:35:15.334Z,9.79
2023-04-28T06:36:15.293Z,9.86
2023-04-28T06:37:15.322Z,10.02
2023-04-28T06:38:15.274Z,10.05
2023-04-28T06:39:15.256Z,10.07
2023-04-28T06:40:15.271Z,10.18
2023-04-28T06:41:15.266Z,10.26
2023-04-28T06:42:15.240Z,10.29
2023-04-28T06:43:15.231Z,10.36
2023-04-28T06:44:15.329Z,10.40
2023-04-28T06:45:20.033Z,10.42
2023-04-28T06:46:15.183Z,10.44
2023-04-28T06:47:15.186Z,10.44
2023-04-28T06:48:15.154Z,10.38
2023-04-28T06:49:15.151Z,10.47
2023-04-28T06:50:15.157Z,10.42
2023-04-28T06:51:15.125Z,10.42
2023-04-28T06:52:15.139Z,10.45
2023-04-28T06:53:15.118Z,10.44
2023-04-28T06:54:15.318Z,10.48
2023-04-28T06:55:15.070Z,10.48
2023-04-28T06:56:15.060Z,10.59
2023-04-28T06:57:15.077Z,10.51
2023-04-28T06:58:15.057Z,10.55
2023-04-28T06:59:15.026Z,10.63
2023-04-28T07:00:15.025Z,10.68
2023-04-28T07:01:15.074Z,10.63
2023-04-28T07:02:15.020Z,10.68
2023-04-28T07:03:15.070Z,10.76
2023-04-28T07:04:15.240Z,10.92
2023-04-28T07:05:16.219Z,10.84
2023-04-28T07:06:14.980Z,10.78
2023-04-28T07:07:14.937Z,10.94
2023-04-28T07:08:14.921Z,10.91
2023-04-28T07:09:14.929Z,10.96
2023-04-28T07:10:14.926Z,11.03
2023-04-28T07:11:15.215Z,11.06
2023-04-28T07:12:14.901Z,11.22
2023-04-28T07:13:14.875Z,11.27
2023-04-28T07:14:15.130Z,11.29
2023-04-28T07:15:14.935Z,11.44
2023-04-28T07:16:14.901Z,11.46
2023-04-28T07:17:14.818Z,11.44
2023-04-28T07:18:14.848Z,11.33
2023-04-28T07:19:14.808Z,11.35
2023-04-28T07:20:14.898Z,11.36
2023-04-28T07:21:14.799Z,11.33
2023-04-28T07:22:14.780Z,11.35
2023-04-28T07:23:14.954Z,11.46
2023-04-28T07:24:15.035Z,11.62
2023-04-28T07:25:15.112Z,11.52
2023-04-28T07:26:14.844Z,11.57
2023-04-28T07:27:14.891Z,11.57
2023-04-28T07:28:14.744Z,11.58
2023-04-28T07:29:14.699Z,11.61
2023-04-28T07:30:26.520Z,11.51
2023-04-28T07:31:15.686Z,11.55
2023-04-28T07:32:14.731Z,11.61
2023-04-28T07:33:14.723Z,11.54
2023-04-28T07:34:14.873Z,11.61
2023-04-28T07:35:14.627Z,11.58
2023-04-28T07:36:14.637Z,11.72
2023-04-28T07:37:14.598Z,11.73
2023-04-28T07:38:14.644Z,11.76
2023-04-28T07:39:15.427Z,11.86
2023-04-28T07:40:14.563Z,11.95
2023-04-28T07:41:14.580Z,11.95
2023-04-28T07:42:14.561Z,11.85
2023-04-28T07:43:14.527Z,11.99
2023-04-28T07:44:14.662Z,12.09
2023-04-28T07:45:14.562Z,12.17
2023-04-28T07:46:14.616Z,12.16
2023-04-28T07:47:14.516Z,12.20
2023-04-28T07:48:14.538Z,12.20
2023-04-28T07:49:14.451Z,12.24
2023-04-28T07:50:14.447Z,12.21
2023-04-28T07:51:14.430Z,12.17
2023-04-28T07:52:14.441Z,12.23
2023-04-28T07:53:14.406Z,12.29
2023-04-28T07:54:14.402Z,12.27
2023-04-28T07:55:14.387Z,12.41
2023-04-28T07:56:14.375Z,12.47
2023-04-28T07:57:14.376Z,12.45
2023-04-28T07:58:14.507Z,12.41
2023-04-28T07:59:14.336Z,12.54
2023-04-28T08:00:14.341Z,12.42
2023-04-28T08:01:14.311Z,12.50
2023-04-28T08:02:14.370Z,12.53
2023-04-28T08:03:14.534Z,12.28
2023-04-28T08:04:15.003Z,12.28
2023-04-28T08:05:14.734Z,12.27
2023-04-28T08:06:14.263Z,12.10
2023-04-28T08:07:14.257Z,12.13
2023-04-28T08:08:14.297Z,12.12
2023-04-28T08:09:14.216Z,12.10
2023-04-28T08:10:14.218Z,12.20
2023-04-28T08:11:14.220Z,12.32
2023-04-28T08:12:14.188Z,12.39
2023-04-28T08:13:14.194Z,12.52
2023-04-28T08:14:14.586Z,12.53
2023-04-28T08:15:14.435Z,12.54
2023-04-28T08:16:14.200Z,12.57
2023-04-28T08:17:14.129Z,12.67
2023-04-28T08:18:14.929Z,12.77
2023-04-28T08:19:14.110Z,12.75
2023-04-28T08:20:14.098Z,12.86
2023-04-28T08:21:14.090Z,12.77
2023-04-28T08:22:14.056Z,12.75
2023-04-28T08:23:14.105Z,12.70
2023-04-28T08:24:14.074Z,12.75
2023-04-28T08:25:14.079Z,12.78
2023-04-28T08:26:14.025Z,12.67
2023-04-28T08:27:14.011Z,12.75
2023-04-28T08:28:13.994Z,12.65
2023-04-28T08:29:14.007Z,12.54
2023-04-28T08:30:13.989Z,12.45
2023-04-28T08:31:14.048Z,12.39
2023-04-28T08:32:13.946Z,12.50
2023-04-28T08:33:14.014Z,12.37
2023-04-28T08:34:15.918Z,12.32
2023-04-28T08:35:13.944Z,12.27
2023-04-28T08:36:13.895Z,12.31
2023-04-28T08:37:13.901Z,12.31
2023-04-28T08:38:13.890Z,12.32
2023-04-28T08:39:13.949Z,12.29
2023-04-28T08:40:13.864Z,12.29
2023-04-28T08:41:13.876Z,12.27
2023-04-28T08:42:13.849Z,12.17
2023-04-28T08:43:13.847Z,12.10
2023-04-28T08:44:13.859Z,12.05
2023-04-28T08:45:13.844Z,11.95
2023-04-28T08:46:13.820Z,11.99
2023-04-28T08:47:13.797Z,11.82
2023-04-28T08:48:13.757Z,11.75
2023-04-28T08:49:13.782Z,11.70
2023-04-28T08:50:13.778Z,11.78
2023-04-28T08:51:13.732Z,11.90
2023-04-28T08:52:13.732Z,11.73
2023-04-28T08:53:13.712Z,11.86
2023-04-28T08:54:25.466Z,11.79
2023-04-28T08:55:14.688Z,11.78
2023-04-28T08:56:13.687Z,11.82
2023-04-28T08:57:13.660Z,11.75
2023-04-28T08:58:13.665Z,11.86
2023-04-28T08:59:13.655Z,11.91
2023-04-28T09:00:13.652Z,11.91
2023-04-28T09:01:13.615Z,12.01
2023-04-28T09:02:13.648Z,11.96
2023-04-28T09:03:13.821Z,11.96
2023-04-28T09:04:14.658Z,12.01
2023-04-28T09:05:13.980Z,11.96
2023-04-28T09:06:13.573Z,11.94
2023-04-28T09:07:13.600Z,12.04
2023-04-28T09:08:13.530Z,11.95
2023-04-28T09:09:13.535Z,11.91
2023-04-28T09:10:13.505Z,12.05
2023-04-28T09:11:13.564Z,12.13
2023-04-28T09:12:13.494Z,12.02
2023-04-28T09:13:13.473Z,12.09
2023-04-28T09:14:13.582Z,12.13
2023-04-28T09:15:13.459Z,12.12
2023-04-28T09:16:13.519Z,12.05
2023-04-28T09:17:13.424Z,12.13
2023-04-28T09:18:13.510Z,12.10
2023-04-28T09:19:13.441Z,12.10
2023-04-28T09:20:13.401Z,12.10
2023-04-28T09:21:13.425Z,11.99
2023-04-28T09:22:26.157Z,12.10
2023-04-28T09:23:14.365Z,12.09
2023-04-28T09:24:13.355Z,12.19
2023-04-28T09:25:13.347Z,12.21
2023-04-28T09:26:13.367Z,12.29
2023-04-28T09:27:13.327Z,12.27
2023-04-28T09:28:13.301Z,12.41
2023-04-28T09:29:13.313Z,12.41
2023-04-28T09:30:20.931Z,12.41
2023-04-28T09:31:13.289Z,12.41
2023-04-28T09:32:13.377Z,12.56
2023-04-28T09:33:13.292Z,12.56
2023-04-28T09:34:13.270Z,12.62
2023-04-28T09:35:13.256Z,12.54
2023-04-28T09:36:13.261Z,12.42
2023-04-28T09:37:13.233Z,12.37
2023-04-28T09:38:13.230Z,12.41
2023-04-28T09:39:13.192Z,12.42
2023-04-28T09:40:13.188Z,12.42
2023-04-28T09:41:13.201Z,12.42
2023-04-28T09:42:13.166Z,12.39
2023-04-28T09:43:21.626Z,12.28
2023-04-28T09:44:14.283Z,12.29
2023-04-28T09:45:13.145Z,12.28
2023-04-28T09:46:13.129Z,12.32
2023-04-28T09:47:13.104Z,12.31
2023-04-28T09:48:13.113Z,12.34
2023-04-28T09:49:13.089Z,12.28
2023-04-28T09:50:13.057Z,12.31
2023-04-28T09:51:13.301Z,12.46
2023-04-28T09:52:13.066Z,12.42
2023-04-28T09:53:13.090Z,12.41
2023-04-28T09:54:13.101Z,12.49
2023-04-28T09:55:13.467Z,12.39
2023-04-28T09:56:13.022Z,12.14
2023-04-28T09:57:12.987Z,12.17
2023-04-28T09:58:12.970Z,12.14
2023-04-28T09:59:12.969Z,12.20
2023-04-28T10:00:12.938Z,12.21
2023-04-28T10:01:13.074Z,12.14
2023-04-28T10:02:26.255Z,12.13
2023-04-28T10:03:14.038Z,12.21
2023-04-28T10:04:13.082Z,12.19
2023-04-28T10:05:13.249Z,12.14
2023-04-28T10:06:12.894Z,12.10
2023-04-28T10:07:12.864Z,12.12
2023-04-28T10:08:12.848Z,12.04
2023-04-28T10:09:12.843Z,11.88
2023-04-28T10:10:12.868Z,11.83
2023-04-28T10:11:12.832Z,11.54
2023-04-28T10:12:12.822Z,11.40
2023-04-28T10:13:12.806Z,11.47
2023-04-28T10:14:12.804Z,11.49
2023-04-28T10:15:12.810Z,11.43
2023-04-28T10:16:12.821Z,11.46
2023-04-28T10:17:12.763Z,11.40
2023-04-28T10:18:12.842Z,11.55
2023-04-28T10:19:12.750Z,11.49
2023-04-28T10:20:12.727Z,11.39
2023-04-28T10:21:12.706Z,11.37
2023-04-28T10:22:12.694Z,11.40
2023-04-28T10:23:12.719Z,11.27
2023-04-28T10:24:12.673Z,11.28
2023-04-28T10:25:12.679Z,11.14
2023-04-28T10:26:12.670Z,11.00
2023-04-28T10:27:12.645Z,10.82
2023-04-28T10:28:12.653Z,10.89
2023-04-28T10:29:12.636Z,10.85
2023-04-28T10:30:23.005Z,10.91
2023-04-28T10:31:13.633Z,10.78
2023-04-28T10:32:12.601Z,10.52
2023-04-28T10:33:12.586Z,10.34
2023-04-28T10:34:12.584Z,10.29
2023-04-28T10:35:12.554Z,10.29
2023-04-28T10:36:12.532Z,10.36
2023-04-28T10:37:12.526Z,10.27
2023-04-28T10:38:12.550Z,10.12
2023-04-28T10:39:12.539Z,10.08
2023-04-28T10:40:12.574Z,10.18
2023-04-28T10:41:12.487Z,10.18
2023-04-28T10:42:12.487Z,10.25
2023-04-28T10:43:12.452Z,10.20
2023-04-28T10:44:12.443Z,10.36
2023-04-28T10:45:12.428Z,10.34
2023-04-28T10:46:12.500Z,10.42
2023-04-28T10:47:12.425Z,10.36
2023-04-28T10:48:12.396Z,10.30
2023-04-28T10:49:12.392Z,10.33
2023-04-28T10:50:12.418Z,10.26
2023-04-28T10:51:12.384Z,10.38
2023-04-28T10:52:12.375Z,10.41
2023-04-28T10:53:12.355Z,10.45
2023-04-28T10:54:12.330Z,10.52
2023-04-28T10:55:21.508Z,10.55
2023-04-28T10:56:13.301Z,10.60
2023-04-28T10:57:12.313Z,10.60
2023-04-28T10:58:12.296Z,10.73
2023-04-28T10:59:12.277Z,10.74
2023-04-28T11:00:12.309Z,10.70
2023-04-28T11:01:12.291Z,10.64
2023-04-28T11:02:12.322Z,10.61
2023-04-28T11:03:12.327Z,10.64
2023-04-28T11:04:12.421Z,10.64
2023-04-28T11:05:12.394Z,10.51
2023-04-28T11:06:12.230Z,10.44
2023-04-28T11:07:12.178Z,10.42
2023-04-28T11:08:12.223Z,10.29
2023-04-28T11:09:12.178Z,10.41
2023-04-28T11:10:12.228Z,10.27
2023-04-28T11:11:12.145Z,10.42
2023-04-28T11:12:12.117Z,10.44
2023-04-28T11:13:12.134Z,10.34
2023-04-28T11:14:12.144Z,10.23
2023-04-28T11:15:19.281Z,10.20
2023-04-28T11:16:12.124Z,10.25
2023-04-28T11:17:19.195Z,10.36
2023-04-28T11:18:19.721Z,10.23
2023-04-28T11:19:19.717Z,10.20
2023-04-28T11:20:19.217Z,10.22
2023-04-28T11:21:12.061Z,10.30
2023-04-28T11:22:19.668Z,10.22
2023-04-28T11:23:19.647Z,9.99
2023-04-28T11:24:19.177Z,9.96
2023-04-28T11:25:11.969Z,9.84
2023-04-28T11:26:11.980Z,9.93
2023-04-28T11:27:11.948Z,9.99
2023-04-28T11:28:11.934Z,10.01
2023-04-28T11:29:11.949Z,10.07
2023-04-28T11:30:11.926Z,10.14
2023-04-28T11:31:11.916Z,10.12
2023-04-28T11:32:13.260Z,10.04
2023-04-28T11:33:11.934Z,10.02
2023-04-28T11:34:11.916Z,9.81
2023-04-28T11:35:11.846Z,9.89
2023-04-28T11:36:11.837Z,9.79
2023-04-28T11:37:11.820Z,9.76
2023-04-28T11:38:11.841Z,9.83
2023-04-28T11:39:11.801Z,9.89
2023-04-28T11:40:11.800Z,9.86
2023-04-28T11:41:11.799Z,9.87
2023-04-28T11:42:11.817Z,9.86
2023-04-28T11:43:11.761Z,9.86
2023-04-28T11:44:11.764Z,9.91
2023-04-28T11:45:11.793Z,9.93
2023-04-28T11:46:12.084Z,9.99
2023-04-28T11:47:11.711Z,10.01
2023-04-28T11:48:11.863Z,10.05
2023-04-28T11:49:11.696Z,9.99
2023-04-28T11:50:11.681Z,10.11
2023-04-28T11:51:11.694Z,10.09
2023-04-28T11:52:11.664Z,10.05
2023-04-28T11:53:11.641Z,9.96
2023-04-28T11:54:11.642Z,10.04
2023-04-28T11:55:11.639Z,10.07
2023-04-28T11:56:11.625Z,9.97
2023-04-28T11:57:11.611Z,9.86
2023-04-28T11:58:11.621Z,9.86
2023-04-28T11:59:11.600Z,9.90
2023-04-28T12:00:11.567Z,9.81
2023-04-28T12:01:11.557Z,9.71
2023-04-28T12:02:11.656Z,9.65
2023-04-28T12:03:11.722Z,9.66
2023-04-28T12:04:11.774Z,9.68
2023-04-28T12:05:11.654Z,9.68
2023-04-28T12:06:11.518Z,9.71
2023-04-28T12:07:11.485Z,9.74
2023-04-28T12:08:11.499Z,9.78
2023-04-28T12:09:11.460Z,9.86
2023-04-28T12:10:11.476Z,9.90
2023-04-28T12:11:11.455Z,9.86
2023-04-28T12:12:11.431Z,10.01
2023-04-28T12:13:11.412Z,9.97
2023-04-28T12:14:11.426Z,9.93
2023-04-28T12:15:11.435Z,10.05
2023-04-28T12:16:11.445Z,9.89
2023-04-28T12:17:11.369Z,9.94
2023-04-28T12:18:11.469Z,9.96
2023-04-28T12:19:11.356Z,9.87
2023-04-28T12:20:11.335Z,9.81
2023-04-28T12:21:11.359Z,9.89
2023-04-28T12:22:11.318Z,9.86
2023-04-28T12:23:11.296Z,9.84
2023-04-28T12:24:11.305Z,9.71
2023-04-28T12:25:11.283Z,9.72
2023-04-28T12:26:11.270Z,9.61
2023-04-28T12:27:11.284Z,9.51
2023-04-28T12:28:11.287Z,9.35
2023-04-28T12:29:11.232Z,9.33
2023-04-28T12:30:11.231Z,9.40
2023-04-28T12:31:11.285Z,9.36
2023-04-28T12:32:11.198Z,9.35
2023-04-28T12:33:11.223Z,9.35
2023-04-28T12:34:11.200Z,9.48
2023-04-28T12:35:11.192Z,9.51
2023-04-28T12:36:11.155Z,9.40
2023-04-28T12:37:11.158Z,9.58
2023-04-28T12:38:11.131Z,9.60
2023-04-28T12:39:11.113Z,9.64
2023-04-28T12:40:11.133Z,9.69
2023-04-28T12:41:11.122Z,9.74
2023-04-28T12:42:11.087Z,9.75
2023-04-28T12:43:11.069Z,9.86
2023-04-28T12:44:11.069Z,9.86
2023-04-28T12:45:11.060Z,9.74
2023-04-28T12:46:11.107Z,9.64
2023-04-28T12:47:11.297Z,9.57
2023-04-28T12:48:11.079Z,9.53
2023-04-28T12:49:11.010Z,9.56
2023-04-28T12:50:11.008Z,9.64
2023-04-28T12:51:10.994Z,9.69
2023-04-28T12:52:11.004Z,9.76
2023-04-28T12:53:10.960Z,9.79
2023-04-28T12:54:10.949Z,9.69
2023-04-28T12:55:10.934Z,9.68
2023-04-28T12:56:10.950Z,9.69
2023-04-28T12:57:10.911Z,9.61
2023-04-28T12:58:10.925Z,9.58
2023-04-28T12:59:10.889Z,9.61
2023-04-28T13:00:10.876Z,9.58
2023-04-28T13:01:10.980Z,9.65
2023-04-28T13:02:10.858Z,9.74
2023-04-28T13:03:10.978Z,9.72
2023-04-28T13:04:11.076Z,9.71
2023-04-28T13:05:10.972Z,9.78
2023-04-28T13:06:10.859Z,9.75
2023-04-28T13:07:10.822Z,9.64
2023-04-28T13:08:10.791Z,9.57